sensor_id;sensor_type;location;lat;lon;timestamp;P1;durP1;ratioP1;P2;durP2;ratioP2
20146;SDS011;10234;50.856;15.716;2024-01-30T00:00:48;17.02;;;9.00;;
20146;SDS011;10234;50.856;15.716;2024-01-30T00:03:15;21.27;;;10.25;;
20146;SDS011;10234;50.856;15.716;2024-01-30T00:05:43;17.20;;;9.77;;
20146;SDS011;10234;50.856;15.716;2024-01-30T00:08:10;24.85;;;8.98;;
20146;SDS011;10234;50.856;15.716;2024-01-30T00:10:37;21.30;;;9.02;;
20146;SDS011;10234;50.856;15.716;2024-01-30T00:13:04;14.40;;;8.07;;
20146;SDS011;10234;50.856;15.716;2024-01-30T00:15:30;18.52;;;8.23;;
20146;SDS011;10234;50.856;15.716;2024-01-30T00:17:57;14.85;;;8.65;;
20146;SDS011;10234;50.856;15.716;2024-01-30T00:20:24;14.95;;;7.78;;
20146;SDS011;10234;50.856;15.716;2024-01-30T00:22:52;13.65;;;8.27;;
20146;SDS011;10234;50.856;15.716;2024-01-30T00:25:19;15.15;;;7.10;;
20146;SDS011;10234;50.856;15.716;2024-01-30T00:27:46;14.23;;;6.78;;
20146;SDS011;10234;50.856;15.716;2024-01-30T00:30:13;15.35;;;7.22;;
20146;SDS011;10234;50.856;15.716;2024-01-30T00:32:40;16.33;;;7.55;;
20146;SDS011;10234;50.856;15.716;2024-01-30T00:35:07;15.50;;;7.70;;
20146;SDS011;10234;50.856;15.716;2024-01-30T00:37:35;14.63;;;7.15;;
20146;SDS011;10234;50.856;15.716;2024-01-30T00:40:04;17.15;;;8.35;;
20146;SDS011;10234;50.856;15.716;2024-01-30T00:42:31;11.55;;;7.72;;
20146;SDS011;10234;50.856;15.716;2024-01-30T00:44:59;11.85;;;6.22;;
20146;SDS011;10234;50.856;15.716;2024-01-30T00:47:26;13.30;;;6.53;;
20146;SDS011;10234;50.856;15.716;2024-01-30T00:49:54;11.82;;;7.00;;
20146;SDS011;10234;50.856;15.716;2024-01-30T00:52:21;12.30;;;6.75;;
20146;SDS011;10234;50.856;15.716;2024-01-30T00:54:47;8.32;;;4.88;;
20146;SDS011;10234;50.856;15.716;2024-01-30T00:57:16;8.85;;;5.53;;
20146;SDS011;10234;50.856;15.716;2024-01-30T00:59:42;11.80;;;6.20;;
20146;SDS011;10234;50.856;15.716;2024-01-30T01:02:09;17.95;;;8.73;;
20146;SDS011;10234;50.856;15.716;2024-01-30T01:04:36;13.32;;;6.22;;
20146;SDS011;10234;50.856;15.716;2024-01-30T01:07:03;8.10;;;5.55;;
20146;SDS011;10234;50.856;15.716;2024-01-30T01:09:30;12.20;;;6.40;;
20146;SDS011;10234;50.856;15.716;2024-01-30T01:11:57;13.32;;;6.15;;
20146;SDS011;10234;50.856;15.716;2024-01-30T01:14:25;9.40;;;5.40;;
20146;SDS011;10234;50.856;15.716;2024-01-30T01:16:51;11.75;;;6.50;;
20146;SDS011;10234;50.856;15.716;2024-01-30T01:19:18;11.80;;;6.35;;
20146;SDS011;10234;50.856;15.716;2024-01-30T01:21:45;11.63;;;5.70;;
20146;SDS011;10234;50.856;15.716;2024-01-30T01:24:12;15.43;;;6.00;;
20146;SDS011;10234;50.856;15.716;2024-01-30T01:26:39;13.45;;;5.30;;
20146;SDS011;10234;50.856;15.716;2024-01-30T01:29:06;9.68;;;5.50;;
20146;SDS011;10234;50.856;15.716;2024-01-30T01:31:36;10.95;;;5.22;;
20146;SDS011;10234;50.856;15.716;2024-01-30T01:34:08;9.10;;;6.10;;
20146;SDS011;10234;50.856;15.716;2024-01-30T01:36:35;14.48;;;6.38;;
20146;SDS011;10234;50.856;15.716;2024-01-30T01:39:02;16.67;;;6.30;;
20146;SDS011;10234;50.856;15.716;2024-01-30T01:41:29;10.30;;;6.80;;
20146;SDS011;10234;50.856;15.716;2024-01-30T01:43:57;12.63;;;5.95;;
20146;SDS011;10234;50.856;15.716;2024-01-30T01:46:26;9.13;;;5.38;;
20146;SDS011;10234;50.856;15.716;2024-01-30T01:48:55;10.98;;;6.30;;
20146;SDS011;10234;50.856;15.716;2024-01-30T01:51:22;7.13;;;4.13;;
20146;SDS011;10234;50.856;15.716;2024-01-30T01:53:50;8.45;;;5.78;;
20146;SDS011;10234;50.856;15.716;2024-01-30T01:56:17;13.65;;;6.63;;
20146;SDS011;10234;50.856;15.716;2024-01-30T01:58:44;10.45;;;4.22;;
20146;SDS011;10234;50.856;15.716;2024-01-30T02:01:13;9.48;;;4.60;;
20146;SDS011;10234;50.856;15.716;2024-01-30T02:03:40;8.70;;;5.40;;
20146;SDS011;10234;50.856;15.716;2024-01-30T02:06:09;12.70;;;5.35;;
20146;SDS011;10234;50.856;15.716;2024-01-30T02:08:36;11.38;;;5.97;;
20146;SDS011;10234;50.856;15.716;2024-01-30T02:11:03;10.25;;;5.07;;
20146;SDS011;10234;50.856;15.716;2024-01-30T02:13:31;10.27;;;5.65;;
20146;SDS011;10234;50.856;15.716;2024-01-30T02:15:58;13.23;;;5.47;;
20146;SDS011;10234;50.856;15.716;2024-01-30T02:18:25;8.15;;;4.22;;
20146;SDS011;10234;50.856;15.716;2024-01-30T02:20:53;9.57;;;5.68;;
20146;SDS011;10234;50.856;15.716;2024-01-30T02:23:23;7.35;;;4.15;;
20146;SDS011;10234;50.856;15.716;2024-01-30T02:25:50;8.20;;;5.20;;
20146;SDS011;10234;50.856;15.716;2024-01-30T02:28:18;8.27;;;5.07;;
20146;SDS011;10234;50.856;15.716;2024-01-30T02:30:45;6.55;;;4.80;;
20146;SDS011;10234;50.856;15.716;2024-01-30T02:33:13;9.48;;;5.22;;
20146;SDS011;10234;50.856;15.716;2024-01-30T02:35:39;9.10;;;4.88;;
20146;SDS011;10234;50.856;15.716;2024-01-30T02:38:06;6.72;;;3.78;;
20146;SDS011;10234;50.856;15.716;2024-01-30T02:40:34;8.63;;;3.97;;
20146;SDS011;10234;50.856;15.716;2024-01-30T02:43:01;8.10;;;4.90;;
20146;SDS011;10234;50.856;15.716;2024-01-30T02:45:29;5.32;;;4.72;;
20146;SDS011;10234;50.856;15.716;2024-01-30T02:47:56;6.72;;;3.40;;
20146;SDS011;10234;50.856;15.716;2024-01-30T02:50:23;6.30;;;4.65;;
20146;SDS011;10234;50.856;15.716;2024-01-30T02:52:50;11.00;;;4.65;;
20146;SDS011;10234;50.856;15.716;2024-01-30T02:55:17;7.25;;;4.30;;
20146;SDS011;10234;50.856;15.716;2024-01-30T02:57:45;10.95;;;4.43;;
20146;SDS011;10234;50.856;15.716;2024-01-30T03:00:12;7.57;;;4.18;;
20146;SDS011;10234;50.856;15.716;2024-01-30T03:02:39;9.35;;;4.88;;
20146;SDS011;10234;50.856;15.716;2024-01-30T03:05:07;8.70;;;3.97;;
20146;SDS011;10234;50.856;15.716;2024-01-30T03:07:34;9.15;;;3.97;;
20146;SDS011;10234;50.856;15.716;2024-01-30T03:10:01;7.18;;;4.25;;
20146;SDS011;10234;50.856;15.716;2024-01-30T03:12:30;6.25;;;4.25;;
20146;SDS011;10234;50.856;15.716;2024-01-30T03:14:58;11.90;;;5.03;;
20146;SDS011;10234;50.856;15.716;2024-01-30T03:17:25;10.13;;;4.60;;
20146;SDS011;10234;50.856;15.716;2024-01-30T03:19:51;9.57;;;5.75;;
20146;SDS011;10234;50.856;15.716;2024-01-30T03:22:18;9.68;;;4.90;;
20146;SDS011;10234;50.856;15.716;2024-01-30T03:24:45;10.18;;;4.75;;
20146;SDS011;10234;50.856;15.716;2024-01-30T03:27:12;6.38;;;3.63;;
20146;SDS011;10234;50.856;15.716;2024-01-30T03:29:39;8.85;;;4.38;;
20146;SDS011;10234;50.856;15.716;2024-01-30T03:32:07;12.38;;;3.72;;
20146;SDS011;10234;50.856;15.716;2024-01-30T03:34:34;9.38;;;4.82;;
20146;SDS011;10234;50.856;15.716;2024-01-30T03:37:00;11.60;;;4.93;;
20146;SDS011;10234;50.856;15.716;2024-01-30T03:39:27;5.38;;;3.25;;
20146;SDS011;10234;50.856;15.716;2024-01-30T03:41:55;6.63;;;4.05;;
20146;SDS011;10234;50.856;15.716;2024-01-30T03:44:22;4.43;;;2.80;;
20146;SDS011;10234;50.856;15.716;2024-01-30T03:46:48;7.05;;;3.72;;
20146;SDS011;10234;50.856;15.716;2024-01-30T03:49:17;10.27;;;4.68;;
20146;SDS011;10234;50.856;15.716;2024-01-30T03:51:44;5.95;;;3.28;;
20146;SDS011;10234;50.856;15.716;2024-01-30T03:54:12;7.78;;;4.45;;
20146;SDS011;10234;50.856;15.716;2024-01-30T03:56:39;6.45;;;4.50;;
20146;SDS011;10234;50.856;15.716;2024-01-30T03:59:06;7.68;;;4.03;;
20146;SDS011;10234;50.856;15.716;2024-01-30T04:01:33;5.75;;;3.75;;
20146;SDS011;10234;50.856;15.716;2024-01-30T04:04:00;10.18;;;4.30;;
20146;SDS011;10234;50.856;15.716;2024-01-30T04:06:28;8.15;;;4.00;;
20146;SDS011;10234;50.856;15.716;2024-01-30T04:08:55;5.43;;;3.35;;
20146;SDS011;10234;50.856;15.716;2024-01-30T04:11:22;9.60;;;3.85;;
20146;SDS011;10234;50.856;15.716;2024-01-30T04:13:49;6.88;;;3.65;;
20146;SDS011;10234;50.856;15.716;2024-01-30T04:16:19;5.63;;;4.25;;
20146;SDS011;10234;50.856;15.716;2024-01-30T04:18:47;6.30;;;3.72;;
20146;SDS011;10234;50.856;15.716;2024-01-30T04:21:13;8.55;;;3.22;;
20146;SDS011;10234;50.856;15.716;2024-01-30T04:23:42;6.45;;;4.40;;
20146;SDS011;10234;50.856;15.716;2024-01-30T04:26:08;9.70;;;5.07;;
20146;SDS011;10234;50.856;15.716;2024-01-30T04:28:35;8.75;;;5.55;;
20146;SDS011;10234;50.856;15.716;2024-01-30T04:31:02;6.80;;;3.80;;
20146;SDS011;10234;50.856;15.716;2024-01-30T04:33:29;12.40;;;5.93;;
20146;SDS011;10234;50.856;15.716;2024-01-30T04:35:56;13.57;;;6.93;;
20146;SDS011;10234;50.856;15.716;2024-01-30T04:38:23;11.45;;;6.75;;
20146;SDS011;10234;50.856;15.716;2024-01-30T04:40:51;9.60;;;5.68;;
20146;SDS011;10234;50.856;15.716;2024-01-30T04:43:18;11.45;;;6.30;;
20146;SDS011;10234;50.856;15.716;2024-01-30T04:45:45;10.65;;;6.55;;
20146;SDS011;10234;50.856;15.716;2024-01-30T04:48:12;11.25;;;4.78;;
20146;SDS011;10234;50.856;15.716;2024-01-30T04:50:39;12.32;;;5.88;;
20146;SDS011;10234;50.856;15.716;2024-01-30T04:53:06;12.05;;;6.15;;
20146;SDS011;10234;50.856;15.716;2024-01-30T04:55:33;13.57;;;6.28;;
20146;SDS011;10234;50.856;15.716;2024-01-30T04:58:02;12.98;;;5.93;;
20146;SDS011;10234;50.856;15.716;2024-01-30T05:00:29;9.45;;;5.18;;
20146;SDS011;10234;50.856;15.716;2024-01-30T05:02:56;10.93;;;6.25;;
20146;SDS011;10234;50.856;15.716;2024-01-30T05:05:23;14.43;;;7.45;;
20146;SDS011;10234;50.856;15.716;2024-01-30T05:07:50;15.60;;;6.00;;
20146;SDS011;10234;50.856;15.716;2024-01-30T05:10:17;12.15;;;6.05;;
20146;SDS011;10234;50.856;15.716;2024-01-30T05:12:44;10.07;;;4.93;;
20146;SDS011;10234;50.856;15.716;2024-01-30T05:15:12;7.05;;;5.03;;
20146;SDS011;10234;50.856;15.716;2024-01-30T05:17:39;10.23;;;4.15;;
20146;SDS011;10234;50.856;15.716;2024-01-30T05:20:06;12.82;;;4.93;;
20146;SDS011;10234;50.856;15.716;2024-01-30T05:22:35;5.28;;;4.57;;
20146;SDS011;10234;50.856;15.716;2024-01-30T05:25:02;10.07;;;5.72;;
20146;SDS011;10234;50.856;15.716;2024-01-30T05:27:30;10.65;;;6.00;;
20146;SDS011;10234;50.856;15.716;2024-01-30T05:29:56;8.43;;;5.30;;
20146;SDS011;10234;50.856;15.716;2024-01-30T05:32:24;8.57;;;4.57;;
20146;SDS011;10234;50.856;15.716;2024-01-30T05:34:51;10.77;;;5.75;;
20146;SDS011;10234;50.856;15.716;2024-01-30T05:37:18;9.43;;;4.78;;
20146;SDS011;10234;50.856;15.716;2024-01-30T05:39:45;9.70;;;6.20;;
20146;SDS011;10234;50.856;15.716;2024-01-30T05:42:12;13.68;;;5.55;;
20146;SDS011;10234;50.856;15.716;2024-01-30T05:44:40;8.60;;;6.20;;
20146;SDS011;10234;50.856;15.716;2024-01-30T05:47:06;8.93;;;5.65;;
20146;SDS011;10234;50.856;15.716;2024-01-30T05:49:35;13.60;;;7.20;;
20146;SDS011;10234;50.856;15.716;2024-01-30T05:52:02;15.23;;;5.75;;
20146;SDS011;10234;50.856;15.716;2024-01-30T05:54:30;10.13;;;4.35;;
20146;SDS011;10234;50.856;15.716;2024-01-30T05:56:57;11.30;;;6.65;;
20146;SDS011;10234;50.856;15.716;2024-01-30T05:59:23;6.57;;;4.72;;
20146;SDS011;10234;50.856;15.716;2024-01-30T06:01:50;9.60;;;4.88;;
20146;SDS011;10234;50.856;15.716;2024-01-30T06:04:18;7.03;;;4.85;;
20146;SDS011;10234;50.856;15.716;2024-01-30T06:06:46;13.30;;;6.13;;
20146;SDS011;10234;50.856;15.716;2024-01-30T06:09:13;7.78;;;4.53;;
20146;SDS011;10234;50.856;15.716;2024-01-30T06:11:40;7.63;;;4.28;;
20146;SDS011;10234;50.856;15.716;2024-01-30T06:14:07;12.02;;;4.55;;
20146;SDS011;10234;50.856;15.716;2024-01-30T06:16:33;10.90;;;5.70;;
20146;SDS011;10234;50.856;15.716;2024-01-30T06:19:00;5.88;;;4.38;;
20146;SDS011;10234;50.856;15.716;2024-01-30T06:21:27;7.05;;;4.15;;
20146;SDS011;10234;50.856;15.716;2024-01-30T06:23:55;6.60;;;4.68;;
20146;SDS011;10234;50.856;15.716;2024-01-30T06:26:22;10.93;;;5.00;;
20146;SDS011;10234;50.856;15.716;2024-01-30T06:28:49;10.80;;;5.65;;
20146;SDS011;10234;50.856;15.716;2024-01-30T06:31:16;12.93;;;5.45;;
20146;SDS011;10234;50.856;15.716;2024-01-30T06:33:42;14.70;;;7.22;;
20146;SDS011;10234;50.856;15.716;2024-01-30T06:36:09;12.57;;;7.05;;
20146;SDS011;10234;50.856;15.716;2024-01-30T06:38:36;15.23;;;6.50;;
20146;SDS011;10234;50.856;15.716;2024-01-30T06:41:04;12.77;;;6.60;;
20146;SDS011;10234;50.856;15.716;2024-01-30T06:43:31;11.05;;;7.38;;
20146;SDS011;10234;50.856;15.716;2024-01-30T06:45:58;12.48;;;7.97;;
20146;SDS011;10234;50.856;15.716;2024-01-30T06:48:25;12.93;;;7.07;;
20146;SDS011;10234;50.856;15.716;2024-01-30T06:50:52;9.57;;;5.82;;
20146;SDS011;10234;50.856;15.716;2024-01-30T06:53:19;7.20;;;4.90;;
20146;SDS011;10234;50.856;15.716;2024-01-30T06:55:46;16.27;;;7.07;;
20146;SDS011;10234;50.856;15.716;2024-01-30T06:58:14;14.07;;;8.40;;
20146;SDS011;10234;50.856;15.716;2024-01-30T07:00:41;12.52;;;7.63;;
20146;SDS011;10234;50.856;15.716;2024-01-30T07:03:08;12.38;;;7.35;;
20146;SDS011;10234;50.856;15.716;2024-01-30T07:05:34;11.80;;;6.80;;
20146;SDS011;10234;50.856;15.716;2024-01-30T07:08:01;10.02;;;6.80;;
20146;SDS011;10234;50.856;15.716;2024-01-30T07:10:28;13.32;;;7.18;;
20146;SDS011;10234;50.856;15.716;2024-01-30T07:12:56;12.27;;;8.20;;
20146;SDS011;10234;50.856;15.716;2024-01-30T07:15:24;18.67;;;11.43;;
20146;SDS011;10234;50.856;15.716;2024-01-30T07:17:51;28.42;;;12.45;;
20146;SDS011;10234;50.856;15.716;2024-01-30T07:20:18;25.30;;;11.27;;
20146;SDS011;10234;50.856;15.716;2024-01-30T07:22:45;20.10;;;10.52;;
20146;SDS011;10234;50.856;15.716;2024-01-30T07:25:12;20.10;;;10.23;;
20146;SDS011;10234;50.856;15.716;2024-01-30T07:27:39;21.90;;;9.70;;
20146;SDS011;10234;50.856;15.716;2024-01-30T07:30:06;17.70;;;10.07;;
20146;SDS011;10234;50.856;15.716;2024-01-30T07:32:34;15.93;;;9.65;;
20146;SDS011;10234;50.856;15.716;2024-01-30T07:35:01;22.70;;;10.10;;
20146;SDS011;10234;50.856;15.716;2024-01-30T07:37:28;15.40;;;8.23;;
20146;SDS011;10234;50.856;15.716;2024-01-30T07:39:55;14.85;;;9.35;;
20146;SDS011;10234;50.856;15.716;2024-01-30T07:42:22;15.85;;;9.60;;
20146;SDS011;10234;50.856;15.716;2024-01-30T07:44:49;30.95;;;14.48;;
20146;SDS011;10234;50.856;15.716;2024-01-30T07:47:15;27.17;;;15.55;;
20146;SDS011;10234;50.856;15.716;2024-01-30T07:49:44;31.45;;;17.30;;
20146;SDS011;10234;50.856;15.716;2024-01-30T07:52:10;22.45;;;11.15;;
20146;SDS011;10234;50.856;15.716;2024-01-30T07:54:37;13.90;;;7.45;;
20146;SDS011;10234;50.856;15.716;2024-01-30T07:57:04;12.77;;;6.95;;
20146;SDS011;10234;50.856;15.716;2024-01-30T07:59:31;14.85;;;6.82;;
20146;SDS011;10234;50.856;15.716;2024-01-30T08:01:58;23.67;;;13.77;;
20146;SDS011;10234;50.856;15.716;2024-01-30T08:04:25;10.65;;;7.35;;
20146;SDS011;10234;50.856;15.716;2024-01-30T08:06:53;11.85;;;7.22;;
20146;SDS011;10234;50.856;15.716;2024-01-30T08:09:19;11.80;;;7.25;;
20146;SDS011;10234;50.856;15.716;2024-01-30T08:11:46;7.85;;;6.00;;
20146;SDS011;10234;50.856;15.716;2024-01-30T08:14:13;7.80;;;5.50;;
20146;SDS011;10234;50.856;15.716;2024-01-30T08:16:40;10.60;;;5.65;;
20146;SDS011;10234;50.856;15.716;2024-01-30T08:19:07;9.80;;;6.10;;
20146;SDS011;10234;50.856;15.716;2024-01-30T08:21:33;12.05;;;7.10;;
20146;SDS011;10234;50.856;15.716;2024-01-30T08:24:06;12.07;;;7.90;;
20146;SDS011;10234;50.856;15.716;2024-01-30T08:26:33;13.48;;;7.93;;
20146;SDS011;10234;50.856;15.716;2024-01-30T08:29:00;13.02;;;8.10;;
20146;SDS011;10234;50.856;15.716;2024-01-30T08:31:27;18.83;;;8.68;;
20146;SDS011;10234;50.856;15.716;2024-01-30T08:33:54;14.77;;;8.65;;
20146;SDS011;10234;50.856;15.716;2024-01-30T08:36:21;12.90;;;7.78;;
20146;SDS011;10234;50.856;15.716;2024-01-30T08:38:48;12.23;;;7.68;;
20146;SDS011;10234;50.856;15.716;2024-01-30T08:41:16;13.45;;;7.85;;
20146;SDS011;10234;50.856;15.716;2024-01-30T08:43:43;13.60;;;8.13;;
20146;SDS011;10234;50.856;15.716;2024-01-30T08:46:10;16.75;;;9.23;;
20146;SDS011;10234;50.856;15.716;2024-01-30T08:48:38;12.20;;;8.43;;
20146;SDS011;10234;50.856;15.716;2024-01-30T08:51:04;48.63;;;23.08;;
20146;SDS011;10234;50.856;15.716;2024-01-30T08:53:33;17.50;;;10.23;;
20146;SDS011;10234;50.856;15.716;2024-01-30T08:56:01;13.77;;;7.43;;
20146;SDS011;10234;50.856;15.716;2024-01-30T08:58:29;13.15;;;8.55;;
20146;SDS011;10234;50.856;15.716;2024-01-30T09:00:56;16.40;;;9.93;;
20146;SDS011;10234;50.856;15.716;2024-01-30T09:03:23;12.50;;;8.48;;
20146;SDS011;10234;50.856;15.716;2024-01-30T09:05:50;17.77;;;9.93;;
20146;SDS011;10234;50.856;15.716;2024-01-30T09:08:17;13.52;;;8.55;;
20146;SDS011;10234;50.856;15.716;2024-01-30T09:10:44;17.02;;;9.85;;
20146;SDS011;10234;50.856;15.716;2024-01-30T09:13:10;16.25;;;10.93;;
20146;SDS011;10234;50.856;15.716;2024-01-30T09:15:39;17.92;;;11.57;;
20146;SDS011;10234;50.856;15.716;2024-01-30T09:18:09;15.52;;;10.07;;
20146;SDS011;10234;50.856;15.716;2024-01-30T09:20:36;17.52;;;10.25;;
20146;SDS011;10234;50.856;15.716;2024-01-30T09:23:03;21.58;;;12.75;;
20146;SDS011;10234;50.856;15.716;2024-01-30T09:25:30;19.88;;;12.02;;
20146;SDS011;10234;50.856;15.716;2024-01-30T09:27:57;16.17;;;10.45;;
20146;SDS011;10234;50.856;15.716;2024-01-30T09:30:23;18.60;;;10.00;;
20146;SDS011;10234;50.856;15.716;2024-01-30T09:32:52;19.60;;;11.10;;
20146;SDS011;10234;50.856;15.716;2024-01-30T09:35:18;17.27;;;10.35;;
20146;SDS011;10234;50.856;15.716;2024-01-30T09:37:45;14.52;;;9.73;;
20146;SDS011;10234;50.856;15.716;2024-01-30T09:40:13;16.05;;;9.07;;
20146;SDS011;10234;50.856;15.716;2024-01-30T09:42:43;15.45;;;9.75;;
20146;SDS011;10234;50.856;15.716;2024-01-30T09:45:14;15.70;;;9.60;;
20146;SDS011;10234;50.856;15.716;2024-01-30T09:47:41;17.45;;;9.82;;
20146;SDS011;10234;50.856;15.716;2024-01-30T09:50:11;19.25;;;10.40;;
20146;SDS011;10234;50.856;15.716;2024-01-30T09:52:38;16.90;;;9.98;;
20146;SDS011;10234;50.856;15.716;2024-01-30T09:55:06;13.98;;;10.30;;
20146;SDS011;10234;50.856;15.716;2024-01-30T09:57:33;17.42;;;10.85;;
20146;SDS011;10234;50.856;15.716;2024-01-30T10:00:01;18.98;;;10.05;;
20146;SDS011;10234;50.856;15.716;2024-01-30T10:02:29;16.85;;;10.93;;
20146;SDS011;10234;50.856;15.716;2024-01-30T10:04:57;19.73;;;10.90;;
20146;SDS011;10234;50.856;15.716;2024-01-30T10:07:25;17.77;;;10.95;;
20146;SDS011;10234;50.856;15.716;2024-01-30T10:09:52;16.17;;;10.85;;
20146;SDS011;10234;50.856;15.716;2024-01-30T10:12:20;17.55;;;10.57;;
20146;SDS011;10234;50.856;15.716;2024-01-30T10:14:47;16.73;;;10.23;;
20146;SDS011;10234;50.856;15.716;2024-01-30T10:17:14;17.05;;;10.88;;
20146;SDS011;10234;50.856;15.716;2024-01-30T10:19:41;16.38;;;10.50;;
20146;SDS011;10234;50.856;15.716;2024-01-30T10:22:09;17.90;;;10.90;;
20146;SDS011;10234;50.856;15.716;2024-01-30T10:24:37;18.83;;;10.35;;
20146;SDS011;10234;50.856;15.716;2024-01-30T10:27:05;15.35;;;10.35;;
20146;SDS011;10234;50.856;15.716;2024-01-30T10:29:32;15.68;;;10.13;;
20146;SDS011;10234;50.856;15.716;2024-01-30T10:31:59;18.33;;;10.30;;
20146;SDS011;10234;50.856;15.716;2024-01-30T10:34:26;16.38;;;10.23;;
20146;SDS011;10234;50.856;15.716;2024-01-30T10:37:08;19.10;;;11.32;;
20146;SDS011;10234;50.856;15.716;2024-01-30T10:39:39;13.95;;;10.20;;
20146;SDS011;10234;50.856;15.716;2024-01-30T10:42:06;16.55;;;9.90;;
20146;SDS011;10234;50.856;15.716;2024-01-30T10:44:37;16.30;;;10.52;;
20146;SDS011;10234;50.856;15.716;2024-01-30T10:47:11;18.58;;;11.07;;
20146;SDS011;10234;50.856;15.716;2024-01-30T10:49:38;21.13;;;10.25;;
20146;SDS011;10234;50.856;15.716;2024-01-30T10:52:07;14.77;;;9.27;;
20146;SDS011;10234;50.856;15.716;2024-01-30T10:54:35;16.33;;;9.57;;
20146;SDS011;10234;50.856;15.716;2024-01-30T10:57:05;14.88;;;8.70;;
20146;SDS011;10234;50.856;15.716;2024-01-30T10:59:32;13.80;;;8.25;;
20146;SDS011;10234;50.856;15.716;2024-01-30T11:01:59;8.85;;;5.03;;
20146;SDS011;10234;50.856;15.716;2024-01-30T11:04:27;9.20;;;5.60;;
20146;SDS011;10234;50.856;15.716;2024-01-30T11:07:01;14.73;;;8.52;;
20146;SDS011;10234;50.856;15.716;2024-01-30T11:09:29;14.43;;;8.82;;
20146;SDS011;10234;50.856;15.716;2024-01-30T11:11:57;12.27;;;8.60;;
20146;SDS011;10234;50.856;15.716;2024-01-30T11:14:26;13.00;;;8.63;;
20146;SDS011;10234;50.856;15.716;2024-01-30T11:16:57;15.70;;;8.77;;
20146;SDS011;10234;50.856;15.716;2024-01-30T11:19:24;13.60;;;8.95;;
20146;SDS011;10234;50.856;15.716;2024-01-30T11:21:52;11.77;;;8.02;;
20146;SDS011;10234;50.856;15.716;2024-01-30T11:24:19;11.32;;;5.88;;
20146;SDS011;10234;50.856;15.716;2024-01-30T11:26:47;4.95;;;3.58;;
20146;SDS011;10234;50.856;15.716;2024-01-30T11:29:15;8.23;;;3.75;;
20146;SDS011;10234;50.856;15.716;2024-01-30T11:31:52;7.97;;;3.40;;
20146;SDS011;10234;50.856;15.716;2024-01-30T11:34:20;4.75;;;3.40;;
20146;SDS011;10234;50.856;15.716;2024-01-30T11:36:48;6.43;;;3.30;;
20146;SDS011;10234;50.856;15.716;2024-01-30T11:39:20;5.93;;;3.63;;
20146;SDS011;10234;50.856;15.716;2024-01-30T11:41:48;7.53;;;4.18;;
20146;SDS011;10234;50.856;15.716;2024-01-30T11:44:17;5.38;;;3.63;;
20146;SDS011;10234;50.856;15.716;2024-01-30T11:46:45;6.13;;;3.55;;
20146;SDS011;10234;50.856;15.716;2024-01-30T11:49:14;6.55;;;4.30;;
20146;SDS011;10234;50.856;15.716;2024-01-30T11:51:42;6.72;;;3.50;;
20146;SDS011;10234;50.856;15.716;2024-01-30T11:54:09;9.63;;;4.72;;
20146;SDS011;10234;50.856;15.716;2024-01-30T11:56:36;6.30;;;4.00;;
20146;SDS011;10234;50.856;15.716;2024-01-30T11:59:03;7.18;;;3.75;;
20146;SDS011;10234;50.856;15.716;2024-01-30T12:01:30;6.35;;;4.10;;
20146;SDS011;10234;50.856;15.716;2024-01-30T12:03:58;7.10;;;3.50;;
20146;SDS011;10234;50.856;15.716;2024-01-30T12:06:26;6.90;;;3.78;;
20146;SDS011;10234;50.856;15.716;2024-01-30T12:08:57;6.90;;;3.72;;
20146;SDS011;10234;50.856;15.716;2024-01-30T12:11:25;4.47;;;3.22;;
20146;SDS011;10234;50.856;15.716;2024-01-30T12:13:52;4.68;;;3.13;;
20146;SDS011;10234;50.856;15.716;2024-01-30T12:16:19;5.40;;;3.20;;
20146;SDS011;10234;50.856;15.716;2024-01-30T12:18:49;5.95;;;3.28;;
20146;SDS011;10234;50.856;15.716;2024-01-30T12:21:27;6.85;;;3.90;;
20146;SDS011;10234;50.856;15.716;2024-01-30T12:23:54;4.90;;;3.15;;
20146;SDS011;10234;50.856;15.716;2024-01-30T12:26:25;7.15;;;3.90;;
20146;SDS011;10234;50.856;15.716;2024-01-30T12:28:54;5.32;;;3.50;;
20146;SDS011;10234;50.856;15.716;2024-01-30T12:31:25;4.70;;;3.30;;
20146;SDS011;10234;50.856;15.716;2024-01-30T12:33:52;7.50;;;4.07;;
20146;SDS011;10234;50.856;15.716;2024-01-30T12:36:19;6.35;;;4.32;;
20146;SDS011;10234;50.856;15.716;2024-01-30T12:38:48;4.88;;;3.92;;
20146;SDS011;10234;50.856;15.716;2024-01-30T12:41:16;5.88;;;3.75;;
20146;SDS011;10234;50.856;15.716;2024-01-30T12:43:42;6.28;;;3.75;;
20146;SDS011;10234;50.856;15.716;2024-01-30T12:46:09;5.45;;;4.05;;
20146;SDS011;10234;50.856;15.716;2024-01-30T12:48:37;6.72;;;4.43;;
20146;SDS011;10234;50.856;15.716;2024-01-30T12:51:03;6.50;;;4.18;;
20146;SDS011;10234;50.856;15.716;2024-01-30T12:53:30;7.20;;;4.18;;
20146;SDS011;10234;50.856;15.716;2024-01-30T12:55:59;8.23;;;4.72;;
20146;SDS011;10234;50.856;15.716;2024-01-30T12:58:25;7.07;;;4.60;;
20146;SDS011;10234;50.856;15.716;2024-01-30T13:00:52;8.93;;;4.22;;
20146;SDS011;10234;50.856;15.716;2024-01-30T13:03:20;6.68;;;4.43;;
20146;SDS011;10234;50.856;15.716;2024-01-30T13:05:48;6.75;;;3.97;;
20146;SDS011;10234;50.856;15.716;2024-01-30T13:08:14;4.28;;;3.45;;
20146;SDS011;10234;50.856;15.716;2024-01-30T13:10:41;8.48;;;4.13;;
20146;SDS011;10234;50.856;15.716;2024-01-30T13:13:09;5.47;;;3.65;;
20146;SDS011;10234;50.856;15.716;2024-01-30T13:15:36;5.10;;;3.10;;
20146;SDS011;10234;50.856;15.716;2024-01-30T13:18:03;5.32;;;3.90;;
20146;SDS011;10234;50.856;15.716;2024-01-30T13:20:31;5.05;;;3.22;;
20146;SDS011;10234;50.856;15.716;2024-01-30T13:22:58;6.10;;;3.78;;
20146;SDS011;10234;50.856;15.716;2024-01-30T13:25:25;4.95;;;3.80;;
20146;SDS011;10234;50.856;15.716;2024-01-30T13:27:51;6.32;;;3.88;;
20146;SDS011;10234;50.856;15.716;2024-01-30T13:30:20;6.78;;;3.85;;
20146;SDS011;10234;50.856;15.716;2024-01-30T13:32:46;6.35;;;3.97;;
20146;SDS011;10234;50.856;15.716;2024-01-30T13:35:13;5.22;;;3.40;;
20146;SDS011;10234;50.856;15.716;2024-01-30T13:37:40;7.50;;;4.15;;
20146;SDS011;10234;50.856;15.716;2024-01-30T13:40:08;6.47;;;4.13;;
20146;SDS011;10234;50.856;15.716;2024-01-30T13:42:35;11.60;;;5.72;;
20146;SDS011;10234;50.856;15.716;2024-01-30T13:45:02;12.95;;;7.25;;
20146;SDS011;10234;50.856;15.716;2024-01-30T13:47:31;10.65;;;6.32;;
20146;SDS011;10234;50.856;15.716;2024-01-30T13:49:58;8.95;;;6.90;;
20146;SDS011;10234;50.856;15.716;2024-01-30T13:52:25;7.88;;;4.63;;
20146;SDS011;10234;50.856;15.716;2024-01-30T13:54:52;7.28;;;4.72;;
20146;SDS011;10234;50.856;15.716;2024-01-30T13:57:19;7.15;;;3.78;;
20146;SDS011;10234;50.856;15.716;2024-01-30T13:59:46;10.32;;;4.53;;
20146;SDS011;10234;50.856;15.716;2024-01-30T14:02:12;4.70;;;3.50;;
20146;SDS011;10234;50.856;15.716;2024-01-30T14:04:41;9.50;;;4.40;;
20146;SDS011;10234;50.856;15.716;2024-01-30T14:07:08;6.38;;;3.45;;
20146;SDS011;10234;50.856;15.716;2024-01-30T14:09:35;10.48;;;7.53;;
20146;SDS011;10234;50.856;15.716;2024-01-30T14:12:02;5.57;;;3.50;;
20146;SDS011;10234;50.856;15.716;2024-01-30T14:14:29;5.88;;;3.80;;
20146;SDS011;10234;50.856;15.716;2024-01-30T14:16:56;8.45;;;4.05;;
20146;SDS011;10234;50.856;15.716;2024-01-30T14:19:23;6.63;;;4.25;;
20146;SDS011;10234;50.856;15.716;2024-01-30T14:21:51;7.82;;;4.18;;
20146;SDS011;10234;50.856;15.716;2024-01-30T14:24:18;8.05;;;4.38;;
20146;SDS011;10234;50.856;15.716;2024-01-30T14:26:44;7.20;;;4.57;;